createdAt,value
2018-03-30T00:02:17.476Z,95854.37
2018-03-30T00:05:40.921Z,95856.46
2018-03-30T00:09:04.200Z,95848.92
2018-03-30T00:12:27.468Z,95852.05
2018-03-30T00:15:50.748Z,95852.81
2018-03-30T00:19:14.054Z,95845.95
2018-03-30T00:22:37.418Z,95841.27
2018-03-30T00:26:00.732Z,95839.09
2018-03-30T00:29:24.758Z,95837.28
2018-03-30T00:32:48.060Z,95833.02
2018-03-30T00:36:11.329Z,95817.93
2018-03-30T00:39:34.659Z,95819.39
2018-03-30T00:42:57.884Z,95803.52
2018-03-30T00:46:22.000Z,95797.87
2018-03-30T00:49:45.288Z,95796.05
2018-03-30T00:53:27.441Z,95784.16
2018-03-30T00:56:51.550Z,95779.59
2018-03-30T01:00:14.810Z,95779.06
2018-03-30T01:03:38.902Z,95771.51
2018-03-30T01:07:02.200Z,95773.70
2018-03-30T01:10:25.487Z,95771.13
2018-03-30T01:13:48.758Z,95767.61
2018-03-30T01:17:12.050Z,95773.16
2018-03-30T01:20:35.372Z,95773.30
2018-03-30T01:23:59.419Z,95766.41
2018-03-30T01:27:22.698Z,95760.34
2018-03-30T01:30:45.992Z,95752.47
2018-03-30T01:34:09.298Z,95758.84
2018-03-30T01:37:32.640Z,95754.70
2018-03-30T01:40:55.910Z,95751.75
2018-03-30T01:44:19.184Z,95742.73
2018-03-30T01:47:43.293Z,95744.16
2018-03-30T01:51:06.552Z,95744.91
2018-03-30T01:54:29.859Z,95736.58
2018-03-30T01:57:53.137Z,95734.55
2018-03-30T02:01:16.414Z,95726.77
2018-03-30T02:04:39.692Z,95728.02
2018-03-30T02:08:02.974Z,95727.16
2018-03-30T02:11:26.257Z,95721.97
2018-03-30T02:14:49.566Z,95722.78
2018-03-30T02:18:12.846Z,95722.14
2018-03-30T02:21:36.134Z,95715.34
2018-03-30T02:24:59.405Z,95718.27
2018-03-30T02:28:22.687Z,95718.34
2018-03-30T02:31:46.035Z,95715.19
2018-03-30T02:35:10.124Z,95698.70
2018-03-30T02:38:33.404Z,95696.77
2018-03-30T02:41:57.540Z,95684.72
2018-03-30T02:45:20.873Z,95688.77
2018-03-30T02:48:44.227Z,95686.45
2018-03-30T02:52:07.518Z,95685.57
2018-03-30T02:55:30.896Z,95693.70
2018-03-30T02:58:54.339Z,95690.93
2018-03-30T03:02:18.381Z,95688.45
2018-03-30T03:05:41.673Z,95684.02
2018-03-30T03:09:04.966Z,95692.30
2018-03-30T03:12:28.315Z,95694.87
2018-03-30T03:15:51.680Z,95694.55
2018-03-30T03:19:15.033Z,95694.13
2018-03-30T03:22:38.360Z,95697.67
2018-03-30T03:26:01.648Z,95693.25
2018-03-30T03:29:24.944Z,95698.14
2018-03-30T03:32:48.315Z,95690.48
2018-03-30T03:36:11.662Z,95693.16
2018-03-30T03:39:34.926Z,95691.41
2018-03-30T03:42:59.034Z,95691.56
2018-03-30T03:46:22.382Z,95682.50
2018-03-30T03:49:45.682Z,95681.41
2018-03-30T03:53:11.583Z,95682.91
2018-03-30T03:56:35.638Z,95679.67
2018-03-30T03:59:58.976Z,95677.65
2018-03-30T04:03:23.020Z,95678.95
2018-03-30T04:06:46.336Z,95670.44
2018-03-30T04:10:09.661Z,95666.60
2018-03-30T04:13:32.948Z,95670.98
2018-03-30T04:16:56.256Z,95665.22
2018-03-30T04:20:19.618Z,95650.61
2018-03-30T04:23:43.954Z,95646.20
2018-03-30T04:27:07.258Z,95643.66
2018-03-30T04:30:30.596Z,95628.12
2018-03-30T04:33:53.886Z,95630.86
2018-03-30T04:37:17.172Z,95630.78
2018-03-30T04:40:40.005Z,95630.25
2018-03-30T04:44:03.300Z,95632.68
2018-03-30T04:47:26.147Z,95621.31
2018-03-30T04:50:49.500Z,95620.88
2018-03-30T04:54:12.383Z,95616.42
2018-03-30T04:57:35.240Z,95616.59
2018-03-30T05:00:58.862Z,95615.03
2018-03-30T05:04:21.718Z,95602.48
2018-03-30T05:07:44.550Z,95602.95
2018-03-30T05:11:07.400Z,95603.40
2018-03-30T05:14:30.240Z,95588.98
2018-03-30T05:17:53.090Z,95584.62
2018-03-30T05:21:15.940Z,95584.10
2018-03-30T05:24:38.835Z,95577.14
2018-03-30T05:28:02.429Z,95563.34
2018-03-30T05:31:25.303Z,95567.06
2018-03-30T05:34:48.142Z,95558.98
2018-03-30T05:38:10.967Z,95558.18
2018-03-30T05:41:33.829Z,95552.03
2018-03-30T05:44:56.685Z,95552.76
2018-03-30T05:48:19.508Z,95541.16
2018-03-30T05:51:42.371Z,95549.45
2018-03-30T05:55:05.353Z,95544.83
2018-03-30T05:58:28.197Z,95544.20
2018-03-30T06:01:51.177Z,95549.83
2018-03-30T06:05:14.131Z,95543.14
2018-03-30T06:08:37.007Z,95552.50
2018-03-30T06:12:00.623Z,95545.84
2018-03-30T06:15:23.462Z,95549.16
2018-03-30T06:18:47.132Z,95550.19
2018-03-30T06:22:10.002Z,95545.10
2018-03-30T06:25:32.909Z,95545.41
2018-03-30T06:28:55.897Z,95550.69
2018-03-30T06:32:20.664Z,95547.43
2018-03-30T06:35:44.598Z,95549.22
2018-03-30T06:39:08.232Z,95543.55
2018-03-30T06:42:31.236Z,95544.24
2018-03-30T06:45:54.885Z,95535.78
2018-03-30T06:49:17.771Z,95536.76
2018-03-30T06:52:40.640Z,95534.27
2018-03-30T06:56:03.557Z,95537.20
2018-03-30T06:59:26.554Z,95524.84
2018-03-30T07:02:49.545Z,95519.33
2018-03-30T07:06:12.385Z,95518.78
2018-03-30T07:09:35.484Z,95514.06
2018-03-30T07:13:00.099Z,95501.75
2018-03-30T07:16:23.134Z,95496.63
2018-03-30T07:19:46.750Z,95492.26
2018-03-30T07:23:09.684Z,95483.16
2018-03-30T07:26:32.524Z,95478.11
2018-03-30T07:29:55.516Z,95472.95
2018-03-30T07:33:18.352Z,95470.82
2018-03-30T07:36:41.249Z,95465.30
2018-03-30T07:40:05.073Z,95455.73
2018-03-30T07:43:27.924Z,95452.44
2018-03-30T07:46:50.779Z,95450.80
2018-03-30T07:50:13.636Z,95435.66
2018-03-30T07:53:36.574Z,95437.94
2018-03-30T07:57:00.176Z,95434.23
2018-03-30T08:00:23.835Z,95426.35
2018-03-30T08:03:46.689Z,95427.11
2018-03-30T08:07:09.528Z,95413.36
2018-03-30T08:10:32.378Z,95408.17
2018-03-30T08:13:55.223Z,95408.29
2018-03-30T08:17:18.057Z,95394.20
2018-03-30T08:20:41.730Z,95395.03
2018-03-30T08:24:04.568Z,95393.03
2018-03-30T08:27:27.425Z,95374.50
2018-03-30T08:30:50.281Z,95380.16
2018-03-30T08:34:13.185Z,95381.00
2018-03-30T08:37:36.050Z,95370.62
2018-03-30T08:40:58.895Z,95360.13
2018-03-30T08:44:21.814Z,95353.48
2018-03-30T08:47:44.666Z,95344.44
2018-03-30T08:51:07.497Z,95345.01
2018-03-30T08:54:30.338Z,95350.23
2018-03-30T08:57:53.198Z,95351.69
2018-03-30T09:01:16.055Z,95349.32
2018-03-30T09:04:38.908Z,95346.28
2018-03-30T09:08:01.764Z,95335.05
2018-03-30T09:11:24.651Z,95315.80
2018-03-30T09:14:47.532Z,95319.11
2018-03-30T09:18:10.402Z,95306.80
2018-03-30T09:21:34.043Z,95292.47
2018-03-30T09:24:57.678Z,95284.41
2018-03-30T09:28:21.303Z,95279.58
2018-03-30T09:31:44.170Z,95270.19
2018-03-30T09:35:07.073Z,95266.70
2018-03-30T09:38:32.485Z,95257.55
2018-03-30T09:41:55.399Z,95255.15
2018-03-30T09:45:18.331Z,95247.09
2018-03-30T09:48:41.966Z,95235.01
2018-03-30T09:52:08.922Z,95223.14
2018-03-30T09:55:31.936Z,95225.11
2018-03-30T09:58:54.789Z,95210.41
2018-03-30T10:02:17.645Z,95203.43
2018-03-30T10:05:40.555Z,95211.48
2018-03-30T10:09:03.424Z,95198.36
2018-03-30T10:12:26.257Z,95188.38
2018-03-30T10:15:49.117Z,95180.25
2018-03-30T10:19:11.932Z,95178.20
2018-03-30T10:22:34.814Z,95181.86
2018-03-30T10:25:58.468Z,95170.02
2018-03-30T10:33:12.018Z,95147.92
2018-03-30T10:36:35.648Z,95145.27
2018-03-30T10:39:58.507Z,95130.25
2018-03-30T10:43:22.123Z,95122.01
2018-03-30T10:46:44.995Z,95109.71
2018-03-30T10:50:07.868Z,95103.72
2018-03-30T10:53:30.888Z,95098.67
2018-03-30T10:56:53.733Z,95091.14
2018-03-30T11:00:17.610Z,95082.77
2018-03-30T11:03:40.493Z,95077.84
2018-03-30T11:07:04.111Z,95059.95
2018-03-30T11:10:27.007Z,95064.23
2018-03-30T11:13:49.880Z,95060.83
2018-03-30T11:17:12.704Z,95062.27
2018-03-30T11:20:35.558Z,95061.47
2018-03-30T11:23:58.408Z,95045.84
2018-03-30T11:27:21.284Z,95039.61
2018-03-30T11:30:44.187Z,95026.78
2018-03-30T11:34:07.049Z,95009.59
2018-03-30T11:37:30.755Z,94996.11
2018-03-30T11:40:53.621Z,94988.65
2018-03-30T11:44:16.540Z,94982.73
2018-03-30T11:47:39.475Z,94982.67
2018-03-30T11:51:04.118Z,94990.27
2018-03-30T11:54:27.112Z,94979.22
2018-03-30T11:57:50.003Z,94964.91
2018-03-30T12:01:12.882Z,94944.11
2018-03-30T12:04:35.869Z,94937.86
2018-03-30T12:07:58.722Z,94935.55
2018-03-30T12:11:21.588Z,94920.02
2018-03-30T12:14:45.242Z,94918.41
2018-03-30T12:18:09.924Z,94905.70
2018-03-30T12:21:32.793Z,94900.87
2018-03-30T12:24:55.793Z,94895.69
2018-03-30T12:28:18.648Z,94888.50
2018-03-30T12:31:41.565Z,94876.59
2018-03-30T12:35:04.423Z,94869.42
2018-03-30T12:38:27.420Z,94860.02
2018-03-30T12:41:50.315Z,94848.60
2018-03-30T12:45:13.172Z,94842.48
2018-03-30T12:48:36.031Z,94829.64
2018-03-30T12:51:58.861Z,94818.23
2018-03-30T12:55:21.915Z,94811.96
2018-03-30T12:58:44.980Z,94791.89
2018-03-30T13:02:07.923Z,94784.94
2018-03-30T13:05:30.787Z,94782.67
2018-03-30T13:08:54.563Z,94779.33
2018-03-30T13:12:17.438Z,94770.91
2018-03-30T13:15:41.180Z,94764.46
2018-03-30T13:19:04.119Z,94754.95
2018-03-30T13:22:26.969Z,94748.86
2018-03-30T13:25:49.830Z,94742.12
2018-03-30T13:29:12.664Z,94737.95
2018-03-30T13:32:35.562Z,94733.92
2018-03-30T13:35:59.133Z,94732.16
2018-03-30T13:39:22.002Z,94723.38
2018-03-30T13:42:44.832Z,94719.23
2018-03-30T13:46:07.689Z,94696.80
2018-03-30T13:49:30.541Z,94694.05
2018-03-30T13:52:53.450Z,94698.45
2018-03-30T13:56:18.064Z,94693.92
2018-03-30T13:59:43.532Z,94686.97
2018-03-30T14:07:49.224Z,94662.55
2018-03-30T14:11:13.032Z,94656.77
2018-03-30T14:14:36.639Z,94662.75
2018-03-30T14:18:05.111Z,94668.30
2018-03-30T14:21:31.801Z,94670.63
2018-03-30T14:24:57.494Z,94688.50
2018-03-30T14:32:18.651Z,94709.48
2018-03-30T14:35:49.399Z,94741.04
2018-03-30T14:39:16.832Z,94780.47
2018-03-30T14:42:40.699Z,94793.79
2018-03-30T14:50:00.022Z,94800.45
2018-03-30T14:53:23.854Z,94802.92
2018-03-30T14:56:48.685Z,94827.17
2018-03-30T15:00:19.452Z,94828.98
2018-03-30T15:03:43.025Z,94847.39
2018-03-30T15:07:05.876Z,94847.84
2018-03-30T15:14:46.605Z,94869.23
2018-03-30T15:18:21.055Z,94885.19
2018-03-30T15:21:45.568Z,94893.00
2018-03-30T15:25:11.091Z,94925.39
2018-03-30T15:28:34.746Z,94931.45
2018-03-30T15:32:08.413Z,94933.42
2018-03-30T15:35:31.307Z,94934.93
2018-03-30T15:38:54.921Z,94944.81
2018-03-30T15:42:17.923Z,94951.69
2018-03-30T15:45:45.658Z,94965.16
2018-03-30T15:49:09.385Z,94976.92
2018-03-30T15:52:33.201Z,94962.83
2018-03-30T15:55:56.025Z,94967.94
2018-03-30T15:59:18.903Z,94968.06
2018-03-30T16:02:41.749Z,94983.66
2018-03-30T16:06:04.622Z,94979.72
2018-03-30T16:09:28.999Z,94998.82
2018-03-30T16:12:56.290Z,95008.59
2018-03-30T16:16:19.898Z,95016.31
2018-03-30T16:19:42.203Z,95022.70
2018-03-30T16:23:05.263Z,95043.99
2018-03-30T16:26:28.569Z,95045.95
2018-03-30T16:29:52.153Z,95035.84
2018-03-30T16:33:14.533Z,95030.33
2018-03-30T16:36:37.672Z,95028.56
2018-03-30T16:40:00.779Z,95032.95
2018-03-30T16:43:23.102Z,95035.64
2018-03-30T16:46:45.424Z,95040.38
2018-03-30T16:50:08.613Z,95035.50
2018-03-30T16:53:30.895Z,95046.33
2018-03-30T16:56:53.979Z,95052.12
2018-03-30T17:00:17.200Z,95048.14
2018-03-30T17:03:39.575Z,95055.73
2018-03-30T17:07:01.844Z,95070.94
2018-03-30T17:10:24.196Z,95075.75
2018-03-30T17:13:47.313Z,95075.88
2018-03-30T17:17:09.584Z,95087.70
2018-03-30T17:20:33.020Z,95094.44
2018-03-30T17:23:56.145Z,95087.44
2018-03-30T17:27:18.405Z,95101.04
2018-03-30T17:30:40.724Z,95126.98
2018-03-30T17:34:03.068Z,95142.68
2018-03-30T17:37:25.361Z,95150.67
2018-03-30T17:40:47.638Z,95158.67
2018-03-30T17:44:10.022Z,95175.62
2018-03-30T17:47:32.322Z,95182.08
2018-03-30T17:50:55.415Z,95188.65
2018-03-30T17:54:17.715Z,95195.25
2018-03-30T17:57:40.054Z,95196.84
2018-03-30T18:01:02.401Z,95206.64
2018-03-30T18:04:25.466Z,95215.13
2018-03-30T18:07:47.959Z,95218.23
2018-03-30T18:11:11.012Z,95223.35
2018-03-30T18:14:34.080Z,95231.81
2018-03-30T18:17:56.431Z,95221.66
2018-03-30T18:21:19.490Z,95228.70
2018-03-30T18:24:42.566Z,95219.26
2018-03-30T18:28:05.684Z,95234.80
2018-03-30T18:31:27.971Z,95253.41
2018-03-30T18:34:51.027Z,95248.25
2018-03-30T18:38:14.114Z,95243.88
2018-03-30T18:41:37.181Z,95248.33
2018-03-30T18:44:59.489Z,95248.37
2018-03-30T18:48:21.767Z,95242.35
2018-03-30T18:51:44.825Z,95244.33
2018-03-30T18:55:07.140Z,95250.28
2018-03-30T18:58:29.415Z,95257.03
2018-03-30T19:01:51.692Z,95262.35
2018-03-30T19:05:14.984Z,95264.05
2018-03-30T19:08:37.332Z,95270.98
2018-03-30T19:12:00.440Z,95278.06
2018-03-30T19:15:22.708Z,95290.91
2018-03-30T19:18:45.016Z,95283.08
2018-03-30T19:22:08.074Z,95270.11
2018-03-30T19:25:31.241Z,95265.48
2018-03-30T19:29:09.909Z,95252.22
2018-03-30T19:32:32.979Z,95253.66
2018-03-30T19:35:56.034Z,95246.83
2018-03-30T19:39:18.376Z,95246.38
2018-03-30T19:42:41.458Z,95243.97
2018-03-30T19:46:04.511Z,95245.83
2018-03-30T19:49:27.566Z,95247.53
2018-03-30T19:52:49.821Z,95249.44
2018-03-30T19:56:12.107Z,95240.33
2018-03-30T19:59:35.213Z,95244.77
2018-03-30T20:02:57.492Z,95257.27
2018-03-30T20:06:19.778Z,95261.23
2018-03-30T20:09:42.241Z,95256.58
2018-03-30T20:13:04.513Z,95260.47
2018-03-30T20:16:26.795Z,95252.22
2018-03-30T20:19:49.871Z,95247.91
2018-03-30T20:23:12.966Z,95262.48
2018-03-30T20:26:35.265Z,95272.81
2018-03-30T20:29:58.340Z,95263.84
2018-03-30T20:33:21.430Z,95261.82
2018-03-30T20:36:43.733Z,95253.58
2018-03-30T20:40:06.085Z,95256.26
2018-03-30T20:43:29.136Z,95258.14
2018-03-30T20:46:51.472Z,95266.38
2018-03-30T20:50:13.742Z,95268.22
2018-03-30T20:53:37.124Z,95271.95
2018-03-30T20:57:00.283Z,95256.34
2018-03-30T21:00:22.566Z,95258.27
2018-03-30T21:03:44.856Z,95261.96
2018-03-30T21:07:07.918Z,95260.58
2018-03-30T21:10:30.982Z,95255.73
2018-03-30T21:13:54.058Z,95244.86
2018-03-30T21:17:17.096Z,95253.45
2018-03-30T21:20:39.792Z,95252.95
2018-03-30T21:24:02.314Z,95262.08
2018-03-30T21:27:25.351Z,95258.57
2018-03-30T21:30:47.623Z,95252.40
2018-03-30T21:34:10.083Z,95245.72
2018-03-30T21:37:32.398Z,95236.66
2018-03-30T21:40:55.437Z,95227.77
2018-03-30T21:44:17.803Z,95220.58
2018-03-30T21:47:40.844Z,95222.55
2018-03-30T21:51:03.275Z,95218.35
2018-03-30T21:54:26.328Z,95212.08
2018-03-30T21:57:48.761Z,95199.61
2018-03-30T22:01:11.830Z,95197.94
2018-03-30T22:04:34.876Z,95203.03
2018-03-30T22:07:57.230Z,95195.67
2018-03-30T22:11:20.298Z,95200.23
2018-03-30T22:14:43.698Z,95202.91
2018-03-30T22:18:05.991Z,95205.46
2018-03-30T22:21:29.073Z,95202.58
2018-03-30T22:24:51.368Z,95197.16
2018-03-30T22:28:13.631Z,95196.96
2018-03-30T22:31:35.898Z,95195.69
2018-03-30T22:34:58.188Z,95212.79
2018-03-30T22:38:21.227Z,95223.45
2018-03-30T22:41:43.523Z,95214.73
2018-03-30T22:45:06.802Z,95213.48
2018-03-30T22:48:29.872Z,95204.93
2018-03-30T22:51:52.976Z,95208.38
2018-03-30T22:55:16.007Z,95200.31
2018-03-30T22:58:39.070Z,95193.47
2018-03-30T23:02:02.137Z,95196.00
2018-03-30T23:05:25.173Z,95203.89
2018-03-30T23:08:47.434Z,95206.91
2018-03-30T23:12:09.711Z,95213.75
2018-03-30T23:15:31.985Z,95201.86
2018-03-30T23:18:54.251Z,95200.27
2018-03-30T23:22:16.596Z,95203.33
2018-03-30T23:25:38.922Z,95213.05
2018-03-30T23:29:01.200Z,95225.81
2018-03-30T23:32:23.544Z,95215.61
2018-03-30T23:35:45.867Z,95214.06
2018-03-30T23:39:08.127Z,95217.19
2018-03-30T23:42:30.394Z,95217.30
2018-03-30T23:45:52.673Z,95223.61
2018-03-30T23:49:14.998Z,95215.06
2018-03-30T23:52:37.266Z,95219.27
2018-03-30T23:55:59.730Z,95226.14
2018-03-30T23:59:22.041Z,95225.70
